createdAt,value
2023-01-25T00:01:26.970Z,18.27
2023-01-25T00:03:29.669Z,17.90
2023-01-25T00:05:31.219Z,20.23
2023-01-25T00:07:34.119Z,18.35
2023-01-25T00:09:35.658Z,20.00
2023-01-25T00:11:37.193Z,18.88
2023-01-25T00:13:38.848Z,17.85
2023-01-25T00:15:40.432Z,19.15
2023-01-25T00:17:42.101Z,20.15
2023-01-25T00:19:43.679Z,21.20
2023-01-25T00:21:45.266Z,16.98
2023-01-25T00:23:48.390Z,16.10
2023-01-25T00:25:57.843Z,18.75
2023-01-25T00:27:59.969Z,20.52
2023-01-25T00:30:01.492Z,20.55
2023-01-25T00:32:57.359Z,18.65
2023-01-25T00:34:58.957Z,18.80
2023-01-25T00:37:12.967Z,16.40
2023-01-25T00:39:15.897Z,17.20
2023-01-25T00:41:17.428Z,20.65
2023-01-25T00:43:18.957Z,14.65
2023-01-25T00:45:20.557Z,17.85
2023-01-25T00:47:22.144Z,17.05
2023-01-25T00:49:25.815Z,17.63
2023-01-25T00:51:27.666Z,16.25
2023-01-25T00:53:29.359Z,17.20
2023-01-25T00:55:32.228Z,19.98
2023-01-25T00:57:33.752Z,19.08
2023-01-25T00:59:35.241Z,16.80
2023-01-25T01:01:37.537Z,17.83
2023-01-25T01:03:39.393Z,15.98
2023-01-25T01:05:40.909Z,17.50
2023-01-25T01:07:42.426Z,16.38
2023-01-25T01:09:43.950Z,17.23
2023-01-25T01:11:46.879Z,18.30
2023-01-25T01:13:48.455Z,15.80
2023-01-25T01:15:49.962Z,18.45
2023-01-25T01:17:51.515Z,17.67
2023-01-25T01:19:53.046Z,15.80
2023-01-25T01:21:54.551Z,15.95
2023-01-25T01:23:56.537Z,15.70
2023-01-25T01:25:59.958Z,16.83
2023-01-25T01:28:03.039Z,16.35
2023-01-25T01:30:05.623Z,15.27
2023-01-25T01:32:07.310Z,15.35
2023-01-25T01:34:12.569Z,18.05
2023-01-25T01:36:15.812Z,14.10
2023-01-25T01:38:17.274Z,14.98
2023-01-25T01:40:18.853Z,15.40
2023-01-25T01:42:20.423Z,13.77
2023-01-25T01:44:48.911Z,15.40
2023-01-25T01:46:54.568Z,12.30
2023-01-25T01:48:59.048Z,11.95
2023-01-25T01:51:03.684Z,15.82
2023-01-25T01:53:05.336Z,14.30
2023-01-25T01:55:11.059Z,13.95
2023-01-25T01:57:14.807Z,15.88
2023-01-25T01:59:17.171Z,15.32
2023-01-25T02:01:20.276Z,13.57
2023-01-25T02:03:22.785Z,11.82
2023-01-25T02:05:30.919Z,11.57
2023-01-25T02:07:35.443Z,13.65
2023-01-25T02:09:37.717Z,12.88
2023-01-25T02:11:40.359Z,10.52
2023-01-25T02:13:41.893Z,11.15
2023-01-25T02:15:47.394Z,13.75
2023-01-25T02:17:51.415Z,11.82
2023-01-25T02:19:59.104Z,11.05
2023-01-25T02:22:03.996Z,10.73
2023-01-25T02:24:11.742Z,9.88
2023-01-25T02:26:15.697Z,9.63
2023-01-25T02:28:22.393Z,10.95
2023-01-25T02:30:23.948Z,9.15
2023-01-25T02:32:26.396Z,9.73
2023-01-25T02:34:27.944Z,9.65
2023-01-25T02:36:31.583Z,8.30
2023-01-25T02:38:35.474Z,11.05
2023-01-25T02:40:44.501Z,10.02
2023-01-25T02:42:47.439Z,9.13
2023-01-25T02:44:50.369Z,10.65
2023-01-25T02:46:52.107Z,10.32
2023-01-25T02:48:54.126Z,10.63
2023-01-25T02:50:55.635Z,11.07
2023-01-25T02:52:57.169Z,10.13
2023-01-25T02:54:58.823Z,11.35
2023-01-25T02:57:00.470Z,11.80
2023-01-25T02:59:03.977Z,10.93
2023-01-25T03:01:05.707Z,12.15
2023-01-25T03:03:07.291Z,9.73
2023-01-25T03:05:09.508Z,12.30
2023-01-25T03:07:11.157Z,11.80
2023-01-25T03:09:12.697Z,11.35
2023-01-25T03:11:14.294Z,13.43
2023-01-25T03:13:16.061Z,10.38
2023-01-25T03:15:19.054Z,11.10
2023-01-25T03:17:20.614Z,11.98
2023-01-25T03:19:22.129Z,13.05
2023-01-25T03:21:24.504Z,12.90
2023-01-25T03:23:26.443Z,13.18
2023-01-25T03:25:28.063Z,12.15
2023-01-25T03:27:30.082Z,10.82
2023-01-25T03:29:31.717Z,12.15
2023-01-25T03:31:34.690Z,13.65
2023-01-25T03:33:36.555Z,12.93
2023-01-25T03:35:38.106Z,11.45
2023-01-25T03:37:39.579Z,9.68
2023-01-25T03:39:41.045Z,13.18
2023-01-25T03:41:42.945Z,12.80
2023-01-25T03:43:44.495Z,13.10
2023-01-25T03:45:46.292Z,12.43
2023-01-25T03:47:49.530Z,11.02
2023-01-25T03:49:53.080Z,12.02
2023-01-25T03:51:54.717Z,10.70
2023-01-25T03:53:56.271Z,11.70
2023-01-25T03:55:59.593Z,12.07
2023-01-25T03:58:01.149Z,10.57
2023-01-25T04:00:03.575Z,11.05
2023-01-25T04:02:05.175Z,10.80
2023-01-25T04:04:10.705Z,11.45
2023-01-25T04:06:15.679Z,11.25
2023-01-25T04:08:17.380Z,11.73
2023-01-25T04:10:19.011Z,12.05
2023-01-25T04:12:20.473Z,13.07
2023-01-25T04:14:35.039Z,12.85
2023-01-25T04:16:40.495Z,13.55
2023-01-25T04:18:41.989Z,13.32
2023-01-25T04:20:45.364Z,11.50
2023-01-25T04:22:46.914Z,12.35
2023-01-25T04:24:48.351Z,12.52
2023-01-25T04:26:49.931Z,11.82
2023-01-25T04:28:51.473Z,14.20
2023-01-25T04:30:53.716Z,13.05
2023-01-25T04:32:55.192Z,12.10
2023-01-25T04:34:57.479Z,11.70
2023-01-25T04:37:00.649Z,11.88
2023-01-25T04:39:02.269Z,13.10
2023-01-25T04:41:03.931Z,13.48
2023-01-25T04:43:05.546Z,12.45
2023-01-25T04:45:11.537Z,11.38
2023-01-25T04:47:13.363Z,15.13
2023-01-25T04:49:14.931Z,13.05
2023-01-25T04:51:16.421Z,14.15
2023-01-25T04:53:19.401Z,11.80
2023-01-25T04:55:21.610Z,12.70
2023-01-25T04:57:23.364Z,12.13
2023-01-25T04:59:24.925Z,11.80
2023-01-25T05:01:26.546Z,12.30
2023-01-25T05:03:28.288Z,12.55
2023-01-25T05:05:29.933Z,11.02
2023-01-25T05:07:31.490Z,14.10
2023-01-25T05:09:34.841Z,12.93
2023-01-25T05:11:36.369Z,13.95
2023-01-25T05:13:37.971Z,14.13
2023-01-25T05:15:39.522Z,13.65
2023-01-25T05:17:41.102Z,14.48
2023-01-25T05:19:42.709Z,16.30
2023-01-25T05:21:45.101Z,16.02
2023-01-25T05:23:46.737Z,12.35
2023-01-25T05:25:49.689Z,14.85
2023-01-25T05:27:51.180Z,12.70
2023-01-25T05:29:52.836Z,16.10
2023-01-25T05:31:54.553Z,13.40
2023-01-25T05:33:56.121Z,13.65
2023-01-25T05:35:57.736Z,13.52
2023-01-25T05:38:00.452Z,11.63
2023-01-25T05:40:02.021Z,15.82
2023-01-25T05:42:10.657Z,13.30
2023-01-25T05:44:12.186Z,15.82
2023-01-25T05:46:13.692Z,14.07
2023-01-25T05:48:15.219Z,15.95
2023-01-25T05:50:16.680Z,17.15
2023-01-25T05:52:18.464Z,20.35
2023-01-25T05:54:20.082Z,17.55
2023-01-25T05:56:21.971Z,17.08
2023-01-25T05:58:27.753Z,15.38
2023-01-25T06:00:29.371Z,17.25
2023-01-25T06:02:30.937Z,15.10
2023-01-25T06:04:32.692Z,15.55
2023-01-25T06:06:34.233Z,14.82
2023-01-25T06:08:36.096Z,16.17
2023-01-25T06:10:37.640Z,16.17
2023-01-25T06:12:39.234Z,16.83
2023-01-25T06:14:42.164Z,14.40
2023-01-25T06:16:43.713Z,16.38
2023-01-25T06:18:45.248Z,16.08
2023-01-25T06:20:46.824Z,17.20
2023-01-25T06:22:49.788Z,18.13
2023-01-25T06:24:51.303Z,14.73
2023-01-25T06:26:52.813Z,15.13
2023-01-25T06:28:54.383Z,16.23
2023-01-25T06:30:57.277Z,14.20
2023-01-25T06:32:58.972Z,15.98
2023-01-25T06:35:00.508Z,19.15
2023-01-25T06:37:04.861Z,19.92
2023-01-25T06:39:06.438Z,14.18
2023-01-25T06:41:12.137Z,14.23
2023-01-25T06:43:13.942Z,15.32
2023-01-25T06:45:17.529Z,15.05
2023-01-25T06:47:20.419Z,15.30
2023-01-25T06:49:21.991Z,14.77
2023-01-25T06:51:23.614Z,15.30
2023-01-25T06:53:26.319Z,14.70
2023-01-25T06:55:28.069Z,15.23
2023-01-25T06:57:29.580Z,15.30
2023-01-25T06:59:31.110Z,14.20
2023-01-25T07:01:32.698Z,11.82
2023-01-25T07:03:35.559Z,15.45
2023-01-25T07:05:37.046Z,13.30
2023-01-25T07:07:38.724Z,13.60
2023-01-25T07:09:40.422Z,16.98
2023-01-25T07:11:41.926Z,15.68
2023-01-25T07:13:45.834Z,13.80
2023-01-25T07:15:52.823Z,14.40
2023-01-25T07:17:54.318Z,14.35
2023-01-25T07:19:57.197Z,12.57
2023-01-25T07:21:58.693Z,13.50
2023-01-25T07:24:01.458Z,15.43
2023-01-25T07:26:03.201Z,13.25
2023-01-25T07:28:04.978Z,13.18
2023-01-25T07:30:10.351Z,16.77
2023-01-25T07:32:12.460Z,16.27
2023-01-25T07:34:14.142Z,14.77
2023-01-25T07:36:17.890Z,16.15
2023-01-25T07:38:19.431Z,13.30
2023-01-25T07:40:21.177Z,14.07
2023-01-25T07:42:22.732Z,15.18
2023-01-25T07:44:24.236Z,14.90
2023-01-25T07:46:25.884Z,15.35
2023-01-25T07:48:27.494Z,15.52
2023-01-25T07:50:29.396Z,16.75
2023-01-25T07:52:32.337Z,18.27
2023-01-25T07:54:33.864Z,16.40
2023-01-25T07:56:37.145Z,16.33
2023-01-25T07:58:39.212Z,20.13
2023-01-25T08:00:40.758Z,16.38
2023-01-25T08:02:42.311Z,12.40
2023-01-25T08:04:43.847Z,15.10
2023-01-25T08:06:45.337Z,16.00
2023-01-25T08:08:50.039Z,31.58
2023-01-25T08:10:51.541Z,29.80
2023-01-25T08:12:53.077Z,35.13
2023-01-25T08:14:55.041Z,30.95
2023-01-25T08:16:56.561Z,44.30
2023-01-25T08:19:00.149Z,29.02
2023-01-25T08:21:01.712Z,33.75
2023-01-25T08:23:03.255Z,19.67
2023-01-25T08:25:08.023Z,9.68
2023-01-25T08:27:09.741Z,9.82
2023-01-25T08:29:12.381Z,15.80
2023-01-25T08:31:15.827Z,10.88
2023-01-25T08:33:17.460Z,14.73
2023-01-25T08:35:18.996Z,15.93
2023-01-25T08:37:20.584Z,17.10
2023-01-25T08:39:22.145Z,15.60
2023-01-25T08:41:25.946Z,17.33
2023-01-25T08:43:27.641Z,9.88
2023-01-25T08:45:29.137Z,15.93
2023-01-25T08:47:31.006Z,16.20
2023-01-25T08:49:32.493Z,17.55
2023-01-25T08:51:34.198Z,22.80
2023-01-25T08:53:35.673Z,14.73
2023-01-25T08:55:37.233Z,17.77
2023-01-25T08:57:40.126Z,16.48
2023-01-25T08:59:41.905Z,15.73
2023-01-25T09:01:43.570Z,14.23
2023-01-25T09:03:47.667Z,11.70
2023-01-25T09:05:49.176Z,10.82
2023-01-25T09:07:50.655Z,11.85
2023-01-25T09:09:52.184Z,12.93
2023-01-25T09:11:53.704Z,14.07
2023-01-25T09:13:57.953Z,10.98
2023-01-25T09:16:00.633Z,14.02
2023-01-25T09:18:02.362Z,11.85
2023-01-25T09:20:05.246Z,12.32
2023-01-25T09:22:06.783Z,12.98
2023-01-25T09:24:08.787Z,13.63
2023-01-25T09:26:11.535Z,12.27
2023-01-25T09:28:13.127Z,18.23
2023-01-25T09:30:18.705Z,14.65
2023-01-25T09:32:20.604Z,13.98
2023-01-25T09:34:22.337Z,17.30
2023-01-25T09:36:23.965Z,13.43
2023-01-25T09:38:25.986Z,11.25
2023-01-25T09:40:34.832Z,15.48
2023-01-25T09:42:54.644Z,13.07
2023-01-25T09:45:11.041Z,14.32
2023-01-25T09:47:26.420Z,13.05
2023-01-25T09:49:44.345Z,13.13
2023-01-25T09:52:01.075Z,13.73
2023-01-25T09:54:02.718Z,11.45
2023-01-25T09:56:12.316Z,13.70
2023-01-25T09:58:19.563Z,12.85
2023-01-25T10:00:25.144Z,17.65
2023-01-25T10:02:38.257Z,15.02
2023-01-25T10:04:42.659Z,13.13
2023-01-25T10:06:59.776Z,13.10
2023-01-25T10:09:11.430Z,11.40
2023-01-25T10:11:20.655Z,10.02
2023-01-25T10:13:24.094Z,10.45
2023-01-25T10:15:31.059Z,12.65
2023-01-25T10:17:39.371Z,11.10
2023-01-25T10:19:52.342Z,13.82
2023-01-25T10:21:57.193Z,15.40
2023-01-25T10:24:13.185Z,11.57
2023-01-25T10:26:21.695Z,13.25
2023-01-25T10:28:33.752Z,15.73
2023-01-25T10:30:42.348Z,12.45
2023-01-25T10:32:55.468Z,17.42
2023-01-25T10:35:01.085Z,13.60
2023-01-25T10:37:11.036Z,11.80
2023-01-25T10:39:12.574Z,13.82
2023-01-25T10:41:20.061Z,13.18
2023-01-25T10:43:22.846Z,16.02
2023-01-25T10:45:24.519Z,15.10
2023-01-25T10:47:29.096Z,19.80
2023-01-25T10:49:40.458Z,12.10
2023-01-25T10:51:42.135Z,13.88
2023-01-25T10:53:43.662Z,13.88
2023-01-25T10:55:58.111Z,18.35
2023-01-25T10:57:59.686Z,18.38
2023-01-25T11:00:06.400Z,14.13
2023-01-25T11:02:36.969Z,16.05
2023-01-25T11:04:39.985Z,13.70
2023-01-25T11:06:48.341Z,14.02
2023-01-25T11:08:49.967Z,12.77
2023-01-25T11:10:52.884Z,20.05
2023-01-25T11:13:18.376Z,13.70
2023-01-25T11:15:24.464Z,18.58
2023-01-25T11:17:28.531Z,55.13
2023-01-25T11:19:34.499Z,18.83
2023-01-25T11:21:51.572Z,14.52
2023-01-25T11:24:15.833Z,26.83
2023-01-25T11:26:19.315Z,14.57
2023-01-25T11:28:22.332Z,18.15
2023-01-25T11:30:23.895Z,14.02
2023-01-25T11:32:25.673Z,17.33
2023-01-25T11:34:29.344Z,19.75
2023-01-25T11:36:38.580Z,18.13
2023-01-25T11:38:57.487Z,18.23
2023-01-25T11:41:10.112Z,16.67
2023-01-25T11:43:26.355Z,13.93
2023-01-25T11:45:49.785Z,21.90
2023-01-25T11:48:08.062Z,105.75
2023-01-25T11:50:15.837Z,31.45
2023-01-25T11:52:27.491Z,36.30
2023-01-25T11:54:52.283Z,57.85
2023-01-25T11:56:58.866Z,31.27
2023-01-25T11:59:23.360Z,17.77
2023-01-25T12:01:33.549Z,19.73
2023-01-25T12:04:20.019Z,20.02
2023-01-25T12:06:29.599Z,16.67
2023-01-25T12:08:51.630Z,16.15
2023-01-25T12:11:00.486Z,19.60
2023-01-25T12:13:11.049Z,13.95
2023-01-25T12:15:30.635Z,16.95
2023-01-25T12:17:47.705Z,14.20
2023-01-25T12:20:13.357Z,17.63
2023-01-25T12:22:33.340Z,14.63
2023-01-25T12:24:51.707Z,17.08
2023-01-25T12:27:01.004Z,14.57
2023-01-25T12:29:13.467Z,16.73
2023-01-25T12:31:22.163Z,14.13
2023-01-25T12:33:29.346Z,15.82
2023-01-25T12:35:36.960Z,13.55
2023-01-25T12:37:41.629Z,14.25
2023-01-25T12:39:48.533Z,36.83
2023-01-25T12:41:54.671Z,17.90
2023-01-25T12:44:06.548Z,35.30
2023-01-25T12:46:14.564Z,12.65
2023-01-25T12:48:20.932Z,16.95
2023-01-25T12:50:28.348Z,15.80
2023-01-25T12:52:33.176Z,14.93
2023-01-25T12:54:40.855Z,14.40
2023-01-25T12:56:48.910Z,14.48
2023-01-25T12:58:56.085Z,15.45
2023-01-25T13:01:06.291Z,14.18
2023-01-25T13:03:19.424Z,16.27
2023-01-25T13:05:31.933Z,17.48
2023-01-25T13:07:40.002Z,15.43
2023-01-25T13:09:51.844Z,16.88
2023-01-25T13:11:53.564Z,31.48
2023-01-25T13:14:26.454Z,19.50
2023-01-25T13:16:48.104Z,19.65
2023-01-25T13:18:51.003Z,16.40
2023-01-25T13:20:54.825Z,21.13
2023-01-25T13:22:59.143Z,20.45
2023-01-25T13:25:16.042Z,18.02
2023-01-25T13:27:26.910Z,16.40
2023-01-25T13:29:54.967Z,19.33
2023-01-25T13:31:59.378Z,20.90
2023-01-25T13:34:01.086Z,18.08
2023-01-25T13:36:38.152Z,16.30
2023-01-25T13:38:39.710Z,15.98
2023-01-25T13:40:41.965Z,22.90
2023-01-25T13:42:59.497Z,21.90
2023-01-25T13:45:04.195Z,15.52
2023-01-25T13:47:11.887Z,21.73
2023-01-25T13:49:22.570Z,22.70
2023-01-25T13:51:27.687Z,22.50
2023-01-25T13:53:29.180Z,23.15
2023-01-25T13:55:38.825Z,37.75
2023-01-25T13:57:40.476Z,28.40
2023-01-25T13:59:41.964Z,17.98
2023-01-25T14:01:47.645Z,16.55
2023-01-25T14:03:52.855Z,20.58
2023-01-25T14:05:56.902Z,14.95
2023-01-25T14:07:58.591Z,17.05
2023-01-25T14:10:02.257Z,19.55
2023-01-25T14:12:08.596Z,24.40
2023-01-25T14:14:19.989Z,32.80
2023-01-25T14:16:21.597Z,34.72
2023-01-25T14:18:29.872Z,39.15
2023-01-25T14:20:32.883Z,20.23
2023-01-25T14:22:34.471Z,21.40
2023-01-25T14:24:36.020Z,21.45
2023-01-25T14:26:39.074Z,21.23
2023-01-25T14:28:51.258Z,23.63
2023-01-25T14:31:22.335Z,18.92
2023-01-25T14:33:27.853Z,24.90
2023-01-25T14:37:59.477Z,15.50
2023-01-25T14:40:12.045Z,20.10
2023-01-25T14:42:14.225Z,17.90
2023-01-25T14:44:16.208Z,20.30
2023-01-25T14:46:24.175Z,17.17
2023-01-25T14:48:35.972Z,21.98
2023-01-25T14:50:40.773Z,25.02
2023-01-25T14:52:42.413Z,22.52
2023-01-25T14:54:48.270Z,20.90
2023-01-25T14:56:52.494Z,22.20
2023-01-25T14:58:59.486Z,18.08
2023-01-25T15:01:02.983Z,18.25
2023-01-25T15:03:05.851Z,21.00
2023-01-25T15:05:18.555Z,18.35
2023-01-25T15:07:36.067Z,17.73
2023-01-25T15:09:40.575Z,17.80
2023-01-25T15:11:43.429Z,17.58
2023-01-25T15:13:45.577Z,15.32
2023-01-25T15:15:52.478Z,30.30
2023-01-25T15:17:54.624Z,16.50
2023-01-25T15:19:56.111Z,19.38
2023-01-25T15:21:59.820Z,18.58
2023-01-25T15:24:11.568Z,17.90
2023-01-25T15:26:20.339Z,17.80
2023-01-25T15:28:23.178Z,19.55
2023-01-25T15:30:24.782Z,18.02
2023-01-25T15:32:26.595Z,19.85
2023-01-25T15:34:28.994Z,19.42
2023-01-25T15:36:31.873Z,18.45
2023-01-25T15:38:33.421Z,19.58
2023-01-25T15:40:36.321Z,20.08
2023-01-25T15:42:37.860Z,18.40
2023-01-25T15:44:39.387Z,17.48
2023-01-25T15:46:44.114Z,15.65
2023-01-25T15:48:47.097Z,19.38
2023-01-25T15:50:48.990Z,19.42
2023-01-25T15:52:50.550Z,22.58
2023-01-25T15:55:01.108Z,21.33
2023-01-25T15:57:05.148Z,20.83
2023-01-25T15:59:09.174Z,19.20
2023-01-25T16:01:10.922Z,19.00
2023-01-25T16:03:12.472Z,19.77
2023-01-25T16:05:14.132Z,16.25
2023-01-25T16:07:23.953Z,21.42
2023-01-25T16:09:27.780Z,27.02
2023-01-25T16:11:29.376Z,20.52
2023-01-25T16:13:32.298Z,21.77
2023-01-25T16:15:33.855Z,17.02
2023-01-25T16:17:35.457Z,16.73
2023-01-25T16:19:36.991Z,22.83
2023-01-25T16:21:38.750Z,16.50
2023-01-25T16:23:40.623Z,15.60
2023-01-25T16:25:44.369Z,19.45
2023-01-25T16:27:46.069Z,15.35
2023-01-25T16:29:48.957Z,16.63
2023-01-25T16:31:50.986Z,16.23
2023-01-25T16:33:52.604Z,19.52
2023-01-25T16:36:04.207Z,17.40
2023-01-25T16:38:05.832Z,18.92
2023-01-25T16:40:20.958Z,20.35
2023-01-25T16:42:22.826Z,21.00
2023-01-25T16:44:24.572Z,21.27
2023-01-25T16:46:27.763Z,17.15
2023-01-25T16:48:29.280Z,23.52
2023-01-25T16:50:30.914Z,32.35
2023-01-25T16:52:32.450Z,27.67
2023-01-25T16:54:33.977Z,23.98
2023-01-25T16:56:35.518Z,31.13
2023-01-25T16:58:37.012Z,27.48
2023-01-25T17:00:38.631Z,20.80
2023-01-25T17:02:56.988Z,19.88
2023-01-25T17:04:59.997Z,20.23
2023-01-25T17:07:01.545Z,22.70
2023-01-25T17:09:20.381Z,20.58
2023-01-25T17:11:24.337Z,19.42
2023-01-25T17:13:25.836Z,17.17
2023-01-25T17:15:30.697Z,17.30
2023-01-25T17:17:32.267Z,19.38
2023-01-25T17:19:35.173Z,21.15
2023-01-25T17:21:36.966Z,20.13
2023-01-25T17:23:38.887Z,19.15
2023-01-25T17:25:43.554Z,18.40
2023-01-25T17:27:45.152Z,20.30
2023-01-25T17:29:46.818Z,24.02
2023-01-25T17:31:48.628Z,18.83
2023-01-25T17:33:50.293Z,22.38
2023-01-25T17:35:53.247Z,24.17
2023-01-25T17:37:54.834Z,31.63
2023-01-25T17:39:56.323Z,36.35
2023-01-25T17:41:57.833Z,26.88
2023-01-25T17:44:00.946Z,43.95
2023-01-25T17:46:11.271Z,25.30
2023-01-25T17:48:12.951Z,23.58
2023-01-25T17:50:14.945Z,27.80
2023-01-25T17:52:17.816Z,23.45
2023-01-25T17:54:19.606Z,22.23
2023-01-25T17:56:21.159Z,51.35
2023-01-25T17:58:23.002Z,57.10
2023-01-25T18:00:24.699Z,25.00
2023-01-25T18:02:26.287Z,24.27
2023-01-25T18:04:27.947Z,39.33
2023-01-25T18:06:30.905Z,50.90
2023-01-25T18:08:33.814Z,41.10
2023-01-25T18:10:35.473Z,37.97
2023-01-25T18:12:36.980Z,32.00
2023-01-25T18:14:38.540Z,27.52
2023-01-25T18:16:40.913Z,24.70
2023-01-25T18:18:43.963Z,20.30
2023-01-25T18:20:45.487Z,23.45
2023-01-25T18:22:47.019Z,18.02
2023-01-25T18:24:50.830Z,23.00
2023-01-25T18:26:59.326Z,23.52
2023-01-25T18:29:05.907Z,18.95
2023-01-25T18:31:07.698Z,20.65
2023-01-25T18:33:09.271Z,19.58
2023-01-25T18:35:11.262Z,20.48
2023-01-25T18:37:13.057Z,22.60
2023-01-25T18:39:14.714Z,20.98
2023-01-25T18:41:17.599Z,20.80
2023-01-25T18:43:19.108Z,20.80
2023-01-25T18:45:20.630Z,23.92
2023-01-25T18:47:23.319Z,23.58
2023-01-25T18:49:24.864Z,22.50
2023-01-25T18:51:26.391Z,23.65
2023-01-25T18:53:31.988Z,24.02
2023-01-25T18:55:33.472Z,20.58
2023-01-25T18:57:36.374Z,19.33
2023-01-25T18:59:37.938Z,22.08
2023-01-25T19:01:39.717Z,24.30
2023-01-25T19:03:41.928Z,26.33
2023-01-25T19:05:43.996Z,39.38
2023-01-25T19:07:45.591Z,32.08
2023-01-25T19:09:47.122Z,24.20
2023-01-25T19:11:48.715Z,21.42
2023-01-25T19:13:51.606Z,20.98
2023-01-25T19:16:00.606Z,26.45
2023-01-25T19:18:02.216Z,45.45
2023-01-25T19:20:04.466Z,42.95
2023-01-25T19:22:06.077Z,38.22
2023-01-25T19:24:11.312Z,27.67
2023-01-25T19:26:18.171Z,23.95
2023-01-25T19:28:19.712Z,28.75
2023-01-25T19:30:22.842Z,27.23
2023-01-25T19:32:24.492Z,25.02
2023-01-25T19:34:26.109Z,23.98
2023-01-25T19:36:28.601Z,18.65
2023-01-25T19:38:30.917Z,21.25
2023-01-25T19:40:32.474Z,19.65
2023-01-25T19:42:33.974Z,28.27
2023-01-25T19:44:35.535Z,25.05
2023-01-25T19:46:38.498Z,27.80
2023-01-25T19:48:41.553Z,21.80
2023-01-25T19:50:43.205Z,23.02
2023-01-25T19:52:44.835Z,21.75
2023-01-25T19:54:46.515Z,22.35
2023-01-25T19:56:48.896Z,20.15
2023-01-25T19:58:50.466Z,21.27
2023-01-25T20:00:52.055Z,23.17
2023-01-25T20:03:01.476Z,22.45
2023-01-25T20:05:06.630Z,23.65
2023-01-25T20:07:08.179Z,24.83
2023-01-25T20:09:12.115Z,22.48
2023-01-25T20:11:15.859Z,22.50
2023-01-25T20:13:17.584Z,24.60
2023-01-25T20:15:19.153Z,22.75
2023-01-25T20:17:20.730Z,22.30
2023-01-25T20:19:23.724Z,23.33
2023-01-25T20:21:26.877Z,20.65
2023-01-25T20:23:31.785Z,22.88
2023-01-25T20:25:33.447Z,23.67
2023-01-25T20:27:35.078Z,21.77
2023-01-25T20:29:36.682Z,24.45
2023-01-25T20:31:39.778Z,24.55
2023-01-25T20:33:41.346Z,23.15
2023-01-25T20:35:44.294Z,24.30
2023-01-25T20:37:47.116Z,21.73
2023-01-25T20:39:50.084Z,23.67
2023-01-25T20:41:51.702Z,21.77
2023-01-25T20:43:54.947Z,20.83
2023-01-25T20:45:56.573Z,23.45
2023-01-25T20:47:58.101Z,19.55
2023-01-25T20:49:59.675Z,25.67
2023-01-25T20:52:02.510Z,19.90
2023-01-25T20:54:04.084Z,20.83
2023-01-25T20:56:07.080Z,20.77
2023-01-25T20:58:08.671Z,18.05
2023-01-25T21:00:11.302Z,22.60
2023-01-25T21:02:12.968Z,19.83
2023-01-25T21:04:14.600Z,22.95
2023-01-25T21:06:16.584Z,22.10
2023-01-25T21:08:20.043Z,18.92
2023-01-25T21:10:21.714Z,23.80
2023-01-25T21:12:23.320Z,19.90
2023-01-25T21:14:24.877Z,27.00
2023-01-25T21:16:26.910Z,41.17
2023-01-25T21:18:30.084Z,36.95
2023-01-25T21:20:31.630Z,32.30
2023-01-25T21:22:33.150Z,26.77
2023-01-25T21:24:36.117Z,28.63
2023-01-25T21:26:37.806Z,28.15
2023-01-25T21:28:39.320Z,28.48
2023-01-25T21:30:40.870Z,29.83
2023-01-25T21:32:42.548Z,27.92
2023-01-25T21:34:44.042Z,20.88
2023-01-25T21:36:45.549Z,22.45
2023-01-25T21:38:48.422Z,27.15
2023-01-25T21:40:51.234Z,32.92
2023-01-25T21:42:52.773Z,41.28
2023-01-25T21:44:54.289Z,35.63
2023-01-25T21:47:23.656Z,31.85
2023-01-25T21:49:17.354Z,24.40
2023-01-25T21:51:18.895Z,23.52
2023-01-25T21:53:20.423Z,25.60
2023-01-25T21:55:21.901Z,26.80
2023-01-25T21:57:24.789Z,39.92
2023-01-25T21:59:26.700Z,70.70
2023-01-25T22:01:28.314Z,35.05
2023-01-25T22:03:29.868Z,30.23
2023-01-25T22:05:31.392Z,23.65
2023-01-25T22:07:33.780Z,22.55
2023-01-25T22:09:35.629Z,24.25
2023-01-25T22:11:37.134Z,24.02
2023-01-25T22:13:40.283Z,20.83
2023-01-25T22:15:41.907Z,20.77
2023-01-25T22:17:43.847Z,22.77
2023-01-25T22:19:45.344Z,18.70
2023-01-25T22:21:47.003Z,22.10
2023-01-25T22:23:49.006Z,22.50
2023-01-25T22:25:59.410Z,21.65
2023-01-25T22:28:03.860Z,27.05
2023-01-25T22:30:10.580Z,22.15
2023-01-25T22:32:12.212Z,20.65
2023-01-25T22:34:13.820Z,24.15
2023-01-25T22:36:17.163Z,25.50
2023-01-25T22:38:18.627Z,27.15
2023-01-25T22:40:20.175Z,39.38
2023-01-25T22:42:21.698Z,54.38
2023-01-25T22:44:23.256Z,38.90
2023-01-25T22:46:28.516Z,27.70
2023-01-25T22:48:30.247Z,49.60
2023-01-25T22:50:31.713Z,60.17
2023-01-25T22:52:33.347Z,42.60
2023-01-25T22:54:35.012Z,33.92
2023-01-25T22:56:36.507Z,27.15
2023-01-25T22:58:39.574Z,23.65
2023-01-25T23:00:41.083Z,22.33
2023-01-25T23:02:43.888Z,21.50
2023-01-25T23:04:45.504Z,23.05
2023-01-25T23:06:46.976Z,18.23
2023-01-25T23:08:49.286Z,23.40
2023-01-25T23:10:50.821Z,29.52
2023-01-25T23:12:53.032Z,128.95
2023-01-25T23:14:54.510Z,93.80
2023-01-25T23:16:56.065Z,55.78
2023-01-25T23:18:59.454Z,39.85
2023-01-25T23:21:02.172Z,25.83
2023-01-25T23:23:03.746Z,29.08
2023-01-25T23:25:06.505Z,23.25
2023-01-25T23:27:07.949Z,21.92
2023-01-25T23:29:12.114Z,22.15
2023-01-25T23:31:16.824Z,23.77
2023-01-25T23:33:18.406Z,24.35
2023-01-25T23:35:21.820Z,21.23
2023-01-25T23:37:23.323Z,22.02
2023-01-25T23:39:24.849Z,18.65
2023-01-25T23:41:28.617Z,21.95
2023-01-25T23:43:30.168Z,20.15
2023-01-25T23:45:31.662Z,20.20
2023-01-25T23:47:33.263Z,20.88
2023-01-25T23:49:34.815Z,22.45
2023-01-25T23:51:37.647Z,19.38
2023-01-25T23:53:39.984Z,22.08
2023-01-25T23:55:41.492Z,18.20
2023-01-25T23:57:42.999Z,20.95
2023-01-25T23:59:44.565Z,20.23
